Time;durP1;ratioP1;P1;durP2;ratioP2;P2;SDS_P1;SDS_P2;PMS_P1;PMS_P2;Temp;Humidity;BMP_temperature;BMP_pressure;BME280_temperature;BME280_humidity;BME280_pressure;Samples;Min_cycle;Max_cycle;Signal;HPM_P1;HPM_P2
2022/08/08 00:01:21;;;;;;;12.40;11.70;;;;;;;14.42;53.27;101286.91;4978847;28;20042;-75
2022/08/08 00:04:05;;;;;;;10.82;10.23;;;;;;;14.42;53.37;101289.56;4983530;28;20066;-74
2022/08/08 00:06:51;;;;;;;11.98;11.15;;;;;;;14.23;54.85;101283.56;4985234;28;20023;-74
2022/08/08 00:09:42;;;;;;;12.38;11.68;;;;;;;14.19;55.38;101280.03;4980607;28;20041;-75
2022/08/08 00:12:11;;;;;;;12.40;11.60;;;;;;;14.14;54.43;101281.84;4977168;28;20038;-75
2022/08/08 00:14:49;;;;;;;11.30;10.60;;;;;;;14.13;54.21;101289.84;4982902;28;20034;-75
2022/08/08 00:17:22;;;;;;;11.88;11.07;;;;;;;14.06;55.41;101294.28;4984149;28;20494;-75
2022/08/08 00:19:59;;;;;;;10.80;10.05;;;;;;;14.09;55.34;101288.97;4983094;28;20038;-75
2022/08/08 00:22:35;;;;;;;11.45;10.75;;;;;;;14.15;54.42;101286.28;4966389;28;20481;-75
2022/08/08 00:25:23;;;;;;;11.90;11.15;;;;;;;14.11;54.32;101284.53;4982830;28;20049;-75
2022/08/08 00:27:51;;;;;;;12.35;11.55;;;;;;;14.03;53.84;101289.91;4982027;28;20051;-75
2022/08/08 00:30:17;;;;;;;11.60;10.85;;;;;;;14.00;54.93;101287.28;4985541;28;20041;-75
2022/08/08 00:33:24;;;;;;;11.63;10.93;;;;;;;14.09;56.22;101288.97;4962755;28;20027;-75
2022/08/08 00:36:12;;;;;;;11.95;11.15;;;;;;;14.12;54.78;101293.38;4968024;28;20070;-75
2022/08/08 00:39:04;;;;;;;11.65;10.65;;;;;;;14.05;55.03;101291.69;4986426;28;20045;-75
2022/08/08 00:42:07;;;;;;;12.48;11.57;;;;;;;14.02;55.05;101298.75;4957490;28;20043;-75
2022/08/08 00:44:46;;;;;;;11.95;10.98;;;;;;;13.91;55.27;101294.41;4961769;28;20708;-75
2022/08/08 00:47:45;;;;;;;12.20;11.25;;;;;;;13.91;55.61;101294.41;4978805;28;20501;-75
2022/08/08 00:50:45;;;;;;;11.98;11.27;;;;;;;13.94;55.59;101289.13;4974821;28;20062;-74
2022/08/08 00:53:51;;;;;;;11.30;10.60;;;;;;;13.94;55.56;101289.13;4974348;28;20061;-74
2022/08/08 00:56:34;;;;;;;12.52;11.45;;;;;;;13.93;54.67;101287.34;4937271;28;20393;-74
2022/08/08 00:59:06;;;;;;;11.63;10.52;;;;;;;13.86;54.60;101285.59;4965173;28;20141;-74
2022/08/08 01:01:31;;;;;;;11.93;11.23;;;;;;;13.82;54.97;101290.06;4965773;28;20451;-74
2022/08/08 01:04:12;;;;;;;11.88;11.18;;;;;;;13.70;55.49;101290.16;4964874;28;20512;-74
2022/08/08 01:06:58;;;;;;;11.48;10.73;;;;;;;13.67;55.97;101292.81;4966095;28;20489;-75
2022/08/08 01:10:01;;;;;;;12.00;11.30;;;;;;;13.64;56.21;101291.06;4965847;28;20043;-74
2022/08/08 01:13:14;;;;;;;11.70;11.00;;;;;;;13.56;56.27;101293.78;4976787;28;20033;-74
2022/08/08 01:16:00;;;;;;;11.85;11.05;;;;;;;13.49;57.01;101285.88;4967757;28;20042;-74
2022/08/08 01:19:12;;;;;;;10.80;10.07;;;;;;;13.41;57.40;101288.56;4966198;28;20038;-74
2022/08/08 01:21:57;;;;;;;11.90;11.20;;;;;;;13.35;56.84;101292.13;4977936;28;20489;-74
2022/08/08 01:24:56;;;;;;;11.48;10.50;;;;;;;13.31;57.54;101292.19;4986487;28;20037;-75
2022/08/08 01:27:52;;;;;;;11.40;10.55;;;;;;;13.30;56.82;101295.69;4969140;28;20022;-75
2022/08/08 01:30:32;;;;;;;11.35;10.65;;;;;;;13.33;56.55;101295.69;4969596;28;20030;-74
2022/08/08 01:33:35;;;;;;;11.20;10.57;;;;;;;13.33;57.11;101298.34;4965532;28;20035;-74
2022/08/08 01:36:22;;;;;;;11.32;10.63;;;;;;;13.26;57.04;101293.94;4966383;28;20125;-75
2022/08/08 01:39:15;;;;;;;11.38;10.48;;;;;;;13.11;58.12;101290.47;4969233;28;20031;-75
2022/08/08 01:41:54;;;;;;;11.90;11.10;;;;;;;13.09;57.40;101289.56;4971078;28;20088;-75
2022/08/08 01:44:52;;;;;;;11.63;10.43;;;;;;;13.07;56.75;101288.72;4963301;28;20096;-75
2022/08/08 01:47:54;;;;;;;12.45;11.30;;;;;;;13.00;57.73;101283.44;4916207;28;20043;-75
2022/08/08 01:50:51;;;;;;;12.40;11.60;;;;;;;13.02;57.73;101290.50;4962192;28;20038;-75
2022/08/08 01:53:43;;;;;;;11.15;10.48;;;;;;;13.03;57.01;101292.25;4972064;28;20035;-74
2022/08/08 01:56:38;;;;;;;11.50;10.80;;;;;;;12.90;58.31;101290.56;4951188;28;20034;-75
2022/08/08 01:59:39;;;;;;;11.18;10.48;;;;;;;12.89;57.75;101283.47;4964106;28;20038;-75
2022/08/08 02:02:23;;;;;;;12.05;11.25;;;;;;;12.86;57.21;101291.44;4959327;28;20390;-75
2022/08/08 02:05:24;;;;;;;12.02;11.23;;;;;;;12.92;57.88;101294.97;4980092;28;20033;-75
2022/08/08 02:08:07;;;;;;;11.98;11.18;;;;;;;12.84;58.17;101288.81;4965307;28;20577;-74
2022/08/08 02:11:04;;;;;;;10.80;10.20;;;;;;;12.78;58.59;101293.22;4980879;28;20063;-75
2022/08/08 02:14:00;;;;;;;10.80;10.10;;;;;;;12.61;60.81;101291.50;4965310;28;20030;-74
2022/08/08 02:16:56;;;;;;;12.30;11.10;;;;;;;12.57;58.92;101289.75;4976422;28;20123;-75
2022/08/08 02:19:41;;;;;;;10.50;9.80;;;;;;;12.62;59.06;101290.63;4959825;28;20042;-74
2022/08/08 02:22:30;;;;;;;11.82;10.77;;;;;;;12.61;58.58;101288.88;4954831;28;20030;-74
2022/08/08 02:25:18;;;;;;;11.93;11.20;;;;;;;12.64;58.47;101286.22;4963438;28;20035;-75
2022/08/08 02:27:58;;;;;;;11.32;10.55;;;;;;;12.66;59.16;101288.88;4967320;28;20455;-76
2022/08/08 02:30:44;;;;;;;11.90;11.00;;;;;;;12.69;58.53;101292.38;4965142;28;20039;-76
2022/08/08 02:33:57;;;;;;;11.38;10.60;;;;;;;12.74;58.78;101302.97;4973341;28;20067;-75
2022/08/08 02:36:57;;;;;;;11.30;10.52;;;;;;;12.75;58.68;101298.53;4978544;28;20042;-76
2022/08/08 02:39:47;;;;;;;12.32;11.52;;;;;;;12.72;59.22;101295.00;4964572;28;20089;-76
2022/08/08 02:42:29;;;;;;;10.75;10.15;;;;;;;12.60;58.58;101300.34;4974495;28;20026;-76
2022/08/08 02:45:31;;;;;;;11.45;10.70;;;;;;;12.52;59.26;101303.88;4983778;28;20088;-76
2022/08/08 02:48:21;;;;;;;10.83;10.07;;;;;;;12.40;59.49;101312.75;4970599;28;20393;-76
2022/08/08 02:51:24;;;;;;;10.70;9.70;;;;;;;12.32;60.42;101301.28;4982323;28;20126;-76
2022/08/08 02:54:27;;;;;;;11.05;10.25;;;;;;;12.32;60.05;101312.75;4984133;28;20405;-76
2022/08/08 02:57:43;;;;;;;9.63;9.00;;;;;;;12.15;60.15;101306.56;4982797;28;20123;-76
2022/08/08 03:00:12;;;;;;;10.73;10.02;;;;;;;12.02;61.69;101313.63;4963008;28;20544;-76
2022/08/08 03:03:00;;;;;;;9.75;9.05;;;;;;;12.00;62.39;101305.69;4966538;28;20639;-76
2022/08/08 03:06:03;;;;;;;10.05;9.45;;;;;;;12.05;62.10;101308.31;4966733;28;20038;-76
2022/08/08 03:09:18;;;;;;;10.02;9.43;;;;;;;12.12;61.80;101309.22;4968980;28;20035;-76
2022/08/08 03:12:44;;;;;;;9.40;8.70;;;;;;;12.11;62.28;101308.34;4967670;28;20546;-76
2022/08/08 03:15:31;;;;;;;9.60;8.80;;;;;;;12.07;61.46;101318.03;4921048;29;20039;-75
2022/08/08 03:18:03;;;;;;;9.57;8.68;;;;;;;11.99;61.90;101314.50;4933959;29;20506;-76
2022/08/08 03:20:41;;;;;;;9.85;9.15;;;;;;;11.95;62.51;101317.16;4966167;28;20050;-76
2022/08/08 03:23:08;;;;;;;9.10;8.50;;;;;;;11.92;61.84;101319.78;4968384;28;20038;-76
2022/08/08 03:25:35;;;;;;;9.40;8.70;;;;;;;11.90;62.33;101318.94;4988342;28;20555;-76
2022/08/08 03:28:09;;;;;;;9.23;8.63;;;;;;;11.85;62.43;101332.97;4982334;28;20609;-76
2022/08/08 03:30:36;;;;;;;8.32;7.75;;;;;;;11.81;63.08;101331.19;4967985;28;20038;-76
2022/08/08 03:33:17;;;;;;;9.82;9.13;;;;;;;11.77;62.29;101329.44;4967288;28;20041;-76
2022/08/08 03:35:49;;;;;;;8.88;8.32;;;;;;;11.69;64.36;101325.91;4973283;28;20023;-76
2022/08/08 03:38:20;;;;;;;8.23;7.57;;;;;;;11.62;64.02;101330.28;4968961;28;20034;-76
2022/08/08 03:40:53;;;;;;;8.52;7.93;;;;;;;11.64;65.50;101332.94;4966317;28;20192;-75
2022/08/08 03:43:21;;;;;;;9.48;8.50;;;;;;;11.59;66.26;101330.28;4966842;28;20062;-76
2022/08/08 03:45:54;;;;;;;9.60;8.90;;;;;;;11.59;64.52;101335.56;4962878;28;20114;-75
2022/08/08 03:48:19;;;;;;;8.40;7.80;;;;;;;11.65;64.42;101345.28;4966668;28;20166;-75
2022/08/08 03:50:47;;;;;;;8.48;7.88;;;;;;;11.69;64.23;101341.78;4960040;28;20030;-75
2022/08/08 03:53:18;;;;;;;8.73;8.13;;;;;;;11.66;64.85;101339.13;4960984;28;20031;-76
2022/08/08 03:55:48;;;;;;;9.43;8.70;;;;;;;11.78;64.11;101352.34;4965481;28;20035;-75
2022/08/08 03:58:24;;;;;;;9.02;8.32;;;;;;;11.79;64.63;101351.50;4980509;28;20041;-75
2022/08/08 04:00:59;;;;;;;8.73;8.13;;;;;;;11.88;63.57;101348.00;4969885;28;20038;-75
2022/08/08 04:03:34;;;;;;;9.75;8.93;;;;;;;12.00;63.02;101350.69;4966920;28;20041;-75
2022/08/08 04:06:05;;;;;;;9.10;8.43;;;;;;;11.96;62.48;101355.97;4969054;28;20035;-75
2022/08/08 04:08:30;;;;;;;9.57;8.88;;;;;;;11.92;63.83;101356.81;4966262;28;20080;-75
2022/08/08 04:10:55;;;;;;;8.73;8.13;;;;;;;11.97;63.96;101363.00;4969553;28;20035;-75
2022/08/08 04:13:21;;;;;;;10.23;9.27;;;;;;;12.02;63.16;101363.88;4966989;28;20065;-75
2022/08/08 04:15:52;;;;;;;10.30;9.52;;;;;;;12.15;62.76;101356.84;4969512;28;20038;-76
2022/08/08 04:18:17;;;;;;;11.68;10.77;;;;;;;12.29;62.99;101360.41;4949662;28;20050;-75
2022/08/08 04:20:43;;;;;;;10.00;9.30;;;;;;;12.39;62.32;101363.91;4965048;28;20412;-76
2022/08/08 04:23:08;;;;;;;10.68;9.98;;;;;;;12.45;62.17;101358.63;4962520;28;20034;-75
2022/08/08 04:25:34;;;;;;;12.63;11.38;;;;;;;12.57;62.08;101366.53;4966569;28;20493;-76
2022/08/08 04:27:59;;;;;;;12.05;11.15;;;;;;;12.68;61.71;101364.78;4984175;28;20030;-76
2022/08/08 04:30:25;;;;;;;14.35;11.15;;;;;;;12.79;61.65;101363.88;4967695;28;20042;-75
2022/08/08 04:32:52;;;;;;;10.23;9.40;;;;;;;12.82;61.64;101363.88;4964120;28;20027;-75
2022/08/08 04:35:20;;;;;;;9.60;8.90;;;;;;;12.83;61.06;101362.97;4970345;28;20501;-76
2022/08/08 04:37:46;;;;;;;10.00;9.23;;;;;;;12.86;62.02;101365.59;4973066;28;20079;-76
2022/08/08 04:40:17;;;;;;;10.30;9.38;;;;;;;12.92;60.98;101362.97;4963887;28;20081;-76
2022/08/08 04:42:47;;;;;;;11.13;9.70;;;;;;;13.00;60.83;101365.59;4965798;28;20517;-75
2022/08/08 04:45:13;;;;;;;12.02;10.95;;;;;;;13.03;60.61;101371.75;4956971;28;20038;-75
2022/08/08 04:47:38;;;;;;;10.70;9.75;;;;;;;13.15;60.92;101369.09;4989990;28;20026;-76
2022/08/08 04:50:04;;;;;;;11.68;10.77;;;;;;;13.34;60.26;101377.00;4964715;28;20030;-75
2022/08/08 04:52:32;;;;;;;11.32;10.52;;;;;;;13.48;60.25;101375.16;4962976;28;20504;-76
2022/08/08 04:54:57;;;;;;;11.07;10.27;;;;;;;13.61;59.72;101373.31;4965711;28;20054;-76
2022/08/08 04:57:23;;;;;;;11.95;11.02;;;;;;;13.75;59.38;101373.25;4991194;28;20034;-76
2022/08/08 04:59:48;;;;;;;12.00;10.80;;;;;;;13.86;59.43;101382.03;4974557;28;20034;-76
2022/08/08 05:02:13;;;;;;;16.77;15.02;;;;;;;13.98;58.97;101381.06;4977581;28;20061;-76
2022/08/08 05:04:40;;;;;;;12.43;11.52;;;;;;;14.07;58.84;101377.47;4969234;28;20034;-76
2022/08/08 05:07:05;;;;;;;12.68;11.57;;;;;;;14.18;58.50;101388.91;4971578;28;20104;-76
2022/08/08 05:09:31;;;;;;;12.93;12.02;;;;;;;14.28;58.10;101376.41;4974032;28;20477;-76
2022/08/08 05:11:57;;;;;;;12.48;11.68;;;;;;;14.40;58.32;101379.84;4966108;28;20453;-76
2022/08/08 05:14:23;;;;;;;11.73;10.88;;;;;;;14.54;57.38;101381.53;4965315;28;20539;-76
2022/08/08 05:16:54;;;;;;;11.77;10.88;;;;;;;14.62;56.96;101390.34;4966904;28;20034;-76
2022/08/08 05:19:21;;;;;;;13.27;12.27;;;;;;;14.64;57.41;101383.22;4964938;28;20030;-76
2022/08/08 05:21:48;;;;;;;13.23;12.18;;;;;;;14.75;56.92;101392.00;4962509;28;20096;-76
2022/08/08 05:24:15;;;;;;;12.68;11.77;;;;;;;14.90;56.55;101383.84;4965386;28;20516;-76
2022/08/08 05:26:45;;;;;;;14.95;13.75;;;;;;;15.03;56.33;101387.25;4965738;28;20026;-76
2022/08/08 05:29:10;;;;;;;13.63;12.63;;;;;;;15.12;56.08;101381.84;4986984;28;20084;-76
2022/08/08 05:31:37;;;;;;;13.10;12.10;;;;;;;15.20;55.67;101383.53;4964297;28;20116;-76
2022/08/08 05:34:05;;;;;;;13.85;12.93;;;;;;;15.30;55.75;101385.16;4969587;28;20509;-76
2022/08/08 05:36:34;;;;;;;12.73;11.93;;;;;;;15.44;55.56;101379.69;4969382;28;20042;-76
2022/08/08 05:39:04;;;;;;;13.50;12.30;;;;;;;15.54;55.36;101386.66;4966034;28;20043;-76
2022/08/08 05:41:33;;;;;;;12.77;11.95;;;;;;;15.60;54.70;101386.56;4981490;28;20035;-76
2022/08/08 05:44:08;;;;;;;12.95;12.05;;;;;;;15.69;54.53;101394.47;4967115;28;20034;-76
2022/08/08 05:46:34;;;;;;;14.23;12.80;;;;;;;15.81;54.37;101392.53;4983442;28;20556;-76
2022/08/08 05:49:02;;;;;;;11.73;10.93;;;;;;;15.89;54.46;101390.66;4964294;28;20149;-76
2022/08/08 05:51:29;;;;;;;12.68;11.55;;;;;;;15.98;54.23;101388.75;4963379;28;20122;-76
2022/08/08 05:53:56;;;;;;;12.07;11.32;;;;;;;16.10;54.12;101398.31;4966341;28;20030;-76
2022/08/08 05:56:22;;;;;;;13.55;12.55;;;;;;;16.28;53.49;101396.28;4964915;28;20035;-76
2022/08/08 05:58:53;;;;;;;12.63;11.57;;;;;;;16.48;53.25;101401.25;4964986;28;20070;-76
2022/08/08 06:01:21;;;;;;;13.15;12.30;;;;;;;16.61;52.78;101409.03;4983790;28;20539;-76
2022/08/08 06:03:49;;;;;;;11.75;10.93;;;;;;;16.77;52.39;101408.78;4948003;28;20135;-76
2022/08/08 06:06:15;;;;;;;12.43;11.63;;;;;;;16.79;52.23;101407.88;4965423;28;20034;-76
2022/08/08 06:08:51;;;;;;;12.93;12.10;;;;;;;16.92;52.29;101397.84;4965498;28;20042;-76
2022/08/08 06:11:18;;;;;;;14.88;13.40;;;;;;;17.05;52.11;101404.72;4979733;28;20027;-76
2022/08/08 06:13:48;;;;;;;14.40;13.50;;;;;;;17.22;51.72;101417.72;4965481;28;20496;-76
2022/08/08 06:16:18;;;;;;;14.05;12.75;;;;;;;17.37;51.79;101411.22;4966127;28;20516;-76
2022/08/08 06:19:09;;;;;;;13.02;12.23;;;;;;;17.56;51.42;101405.50;4966305;28;20030;-76
2022/08/08 06:21:37;;;;;;;13.75;12.45;;;;;;;17.73;51.14;101403.34;4963197;28;20523;-76
2022/08/08 06:24:05;;;;;;;12.68;11.77;;;;;;;17.87;51.13;101406.63;4965632;28;20030;-76
2022/08/08 06:26:38;;;;;;;14.70;13.50;;;;;;;18.03;50.51;101407.16;4961912;28;20032;-76
2022/08/08 06:29:08;;;;;;;14.13;13.00;;;;;;;18.21;50.00;101408.53;4963117;28;20493;-76
2022/08/08 06:31:35;;;;;;;12.30;11.50;;;;;;;18.35;49.17;101416.19;4965010;28;20037;-76
2022/08/08 06:34:15;;;;;;;12.45;11.45;;;;;;;18.46;48.60;101411.44;4964529;28;20105;-76
2022/08/08 06:36:43;;;;;;;12.60;11.38;;;;;;;18.56;48.76;101414.78;4982480;28;20508;-76
2022/08/08 06:39:10;;;;;;;12.05;10.95;;;;;;;18.60;47.86;101406.66;4964108;28;20085;-76
2022/08/08 06:42:03;;;;;;;11.45;10.73;;;;;;;18.63;48.21;101413.72;4967438;28;20034;-75
2022/08/08 06:44:41;;;;;;;11.48;10.77;;;;;;;18.77;47.72;101406.25;4959906;28;20477;-76
2022/08/08 06:47:06;;;;;;;11.80;11.00;;;;;;;18.82;47.72;101414.16;4965366;28;20040;-75
2022/08/08 06:49:32;;;;;;;10.27;9.57;;;;;;;18.93;46.98;101403.16;4962341;28;20043;-76
2022/08/08 06:51:59;;;;;;;11.57;10.88;;;;;;;19.09;46.63;101411.66;4969526;28;20030;-76
2022/08/08 06:54:26;;;;;;;11.68;10.60;;;;;;;19.10;46.49;101405.34;4972196;28;20497;-76
2022/08/08 06:56:52;;;;;;;11.82;11.02;;;;;;;19.21;46.48;101406.84;4967124;28;20429;-76
2022/08/08 06:59:18;;;;;;;12.95;11.95;;;;;;;19.36;46.13;101407.31;4989842;28;20121;-76
2022/08/08 07:01:51;;;;;;;12.13;10.88;;;;;;;19.49;45.55;101406.03;4964623;28;20061;-76
2022/08/08 07:04:51;;;;;;;11.07;10.38;;;;;;;19.52;44.61;101405.97;4966861;28;20041;-76
2022/08/08 07:07:29;;;;;;;12.77;11.60;;;;;;;19.65;45.18;101399.31;4975876;28;20468;-75
2022/08/08 07:10:02;;;;;;;11.85;11.05;;;;;;;19.83;44.64;101405.94;4988151;28;20038;-76
2022/08/08 07:12:40;;;;;;;10.40;9.55;;;;;;;19.92;43.21;101402.09;4969821;28;20082;-75
2022/08/08 07:15:12;;;;;;;10.25;9.55;;;;;;;20.01;43.61;101404.47;4955343;28;20034;-76
2022/08/08 07:17:49;;;;;;;14.13;12.63;;;;;;;20.17;42.95;101409.34;4963728;28;20035;-76
2022/08/08 07:20:28;;;;;;;10.85;10.05;;;;;;;20.31;43.35;101404.44;4981529;28;20493;-76
2022/08/08 07:23:13;;;;;;;10.95;10.10;;;;;;;20.43;42.04;101412.06;4979655;28;20073;-76
2022/08/08 07:25:40;;;;;;;10.30;9.60;;;;;;;20.55;43.30;101408.13;4963407;28;20030;-76
2022/08/08 07:28:08;;;;;;;11.23;10.43;;;;;;;20.60;42.42;101413.34;4966528;28;20030;-76
2022/08/08 07:30:36;;;;;;;10.32;9.63;;;;;;;20.71;42.48;101416.53;4963458;28;20043;-76
2022/08/08 07:33:02;;;;;;;9.73;9.02;;;;;;;20.90;42.28;101414.09;4965491;28;20030;-76
2022/08/08 07:35:31;;;;;;;9.10;8.50;;;;;;;21.05;40.84;101410.00;4963080;28;20035;-76
2022/08/08 07:37:58;;;;;;;8.07;7.57;;;;;;;21.24;41.03;101411.94;4948901;28;20030;-76
2022/08/08 07:40:32;;;;;;;9.38;8.68;;;;;;;21.42;40.85;101410.41;4965803;28;20035;-76
2022/08/08 07:43:02;;;;;;;9.63;8.75;;;;;;;21.60;40.21;101407.97;4974069;28;20515;-76
2022/08/08 07:45:28;;;;;;;11.90;9.88;;;;;;;21.74;40.35;101413.69;4986067;28;20030;-76
2022/08/08 07:47:53;;;;;;;10.55;9.88;;;;;;;21.72;39.33;101407.53;4967112;28;20028;-76
2022/08/08 07:50:20;;;;;;;11.43;10.63;;;;;;;21.84;39.77;101411.53;4969199;28;20068;-76
2022/08/08 07:52:50;;;;;;;11.27;10.48;;;;;;;21.95;39.52;101408.41;4970492;28;20038;-76
2022/08/08 07:55:26;;;;;;;11.18;10.38;;;;;;;21.88;38.13;101408.66;4972479;28;20026;-76
2022/08/08 07:58:11;;;;;;;9.38;8.77;;;;;;;21.86;38.22;101407.84;4966506;28;20417;-76
2022/08/08 08:01:02;;;;;;;11.30;10.50;;;;;;;22.10;37.88;101408.66;4976353;28;20026;-76
2022/08/08 08:03:54;;;;;;;10.52;9.82;;;;;;;22.37;37.13;101404.94;4984176;28;20073;-76
2022/08/08 08:06:21;;;;;;;9.05;8.55;;;;;;;22.50;37.42;101414.25;4975770;28;20558;-76
2022/08/08 08:09:15;;;;;;;9.60;8.90;;;;;;;22.64;36.74;101411.88;4965472;28;20093;-76
2022/08/08 08:11:44;;;;;;;;;;;;;;;22.70;36.05;101411.59;4981146;28;20041;-76
2022/08/08 08:14:17;;;;;;;9.52;8.73;;;;;;;22.89;36.60;101413.50;4967349;28;20060;-76
2022/08/08 08:16:46;;;;;;;9.52;8.82;;;;;;;23.05;36.43;101405.66;4964939;28;20039;-76
2022/08/08 08:19:13;;;;;;;9.60;8.75;;;;;;;23.19;35.71;101414.88;4972269;28;20481;-76
2022/08/08 08:21:46;;;;;;;9.52;8.75;;;;;;;23.24;35.06;101411.09;4964219;28;20117;-76
2022/08/08 08:24:24;;;;;;;9.20;8.60;;;;;;;23.32;35.50;101417.03;4965489;28;20031;-76
2022/08/08 08:26:51;;;;;;;9.95;9.15;;;;;;;23.43;35.36;101420.09;4967163;28;20030;-76
2022/08/08 08:29:16;;;;;;;9.27;8.57;;;;;;;23.57;34.46;101422.16;4984058;28;20085;-76
2022/08/08 08:31:43;;;;;;;9.07;8.48;;;;;;;23.69;34.37;101421.59;4965417;28;20043;-76
2022/08/08 08:34:09;;;;;;;9.65;8.80;;;;;;;23.75;33.29;101415.06;4964626;28;20038;-76
2022/08/08 08:36:36;;;;;;;9.27;8.50;;;;;;;23.83;34.02;101416.44;4953017;28;20034;-76
2022/08/08 08:39:02;;;;;;;9.32;8.50;;;;;;;23.71;33.65;101416.09;4967733;28;20703;-76
2022/08/08 08:41:33;;;;;;;;;;;;;;;23.85;31.97;101419.06;4967205;28;20031;-76
2022/08/08 08:44:01;;;;;;;9.43;8.73;;;;;;;24.00;32.63;101412.09;4952417;28;19929;-76
2022/08/08 08:46:28;;;;;;;8.90;8.30;;;;;;;23.95;32.20;101416.81;4962169;28;20683;-76
2022/08/08 08:48:54;;;;;;;9.73;8.95;;;;;;;24.03;32.78;101418.19;4967428;28;20036;-76
2022/08/08 08:51:24;;;;;;;9.18;8.57;;;;;;;24.24;32.71;101418.97;4962629;28;20030;-76
2022/08/08 08:53:52;;;;;;;9.18;8.57;;;;;;;24.36;31.16;101417.47;4964512;28;20031;-76
2022/08/08 08:56:24;;;;;;;9.13;8.52;;;;;;;24.38;31.66;101415.56;4965433;28;20030;-76
2022/08/08 08:58:52;;;;;;;8.82;8.30;;;;;;;24.41;31.05;101410.03;4967380;28;20401;-76
2022/08/08 09:01:26;;;;;;;9.35;8.75;;;;;;;24.46;29.55;101409.81;4956725;28;20031;-76
2022/08/08 09:03:59;;;;;;;9.40;8.65;;;;;;;24.46;29.30;101407.13;4964989;28;20645;-76
2022/08/08 09:06:36;;;;;;;9.68;8.88;;;;;;;24.54;29.63;101414.84;4968251;28;20129;-76
2022/08/08 09:09:28;;;;;;;10.50;9.45;;;;;;;24.63;29.51;101417.97;4944789;28;20073;-76
2022/08/08 09:12:01;;;;;;;10.23;9.52;;;;;;;24.82;29.40;101411.63;4964746;28;20038;-76
2022/08/08 09:14:29;;;;;;;11.15;10.25;;;;;;;24.90;29.30;101415.66;4965128;28;20038;-76
2022/08/08 09:16:57;;;;;;;9.52;8.65;;;;;;;25.07;28.58;101417.47;4963879;28;20035;-76
2022/08/08 09:19:24;;;;;;;9.75;9.00;;;;;;;25.16;28.73;101412.56;4965621;28;20057;-76
2022/08/08 09:21:51;;;;;;;9.43;8.73;;;;;;;25.20;28.84;101408.75;4963295;28;20369;-76
2022/08/08 09:24:16;;;;;;;9.70;9.02;;;;;;;25.24;29.25;101408.50;4962477;28;20037;-76
2022/08/08 09:27:12;;;;;;;9.95;9.20;;;;;;;25.50;29.01;101404.38;4964586;28;20035;-76
2022/08/08 09:30:09;;;;;;;9.55;8.85;;;;;;;25.71;28.47;101396.91;4947363;28;20042;-76
2022/08/08 09:32:38;;;;;;;10.27;9.32;;;;;;;25.87;28.93;101404.19;4980175;28;20089;-75
2022/08/08 09:35:13;;;;;;;11.25;10.18;;;;;;;26.04;28.90;101401.38;4963488;28;20034;-76
2022/08/08 09:37:48;;;;;;;9.93;9.05;;;;;;;26.20;27.88;101393.28;4962656;28;20513;-76
2022/08/08 09:40:18;;;;;;;9.35;8.68;;;;;;;26.22;28.52;101399.47;4962617;28;20512;-76
2022/08/08 09:42:47;;;;;;;10.20;9.27;;;;;;;26.31;27.98;101401.66;4962642;28;20039;-76
2022/08/08 09:45:21;;;;;;;10.63;9.75;;;;;;;26.42;27.21;101398.31;4986432;28;20045;-76
2022/08/08 09:47:48;;;;;;;9.90;9.00;;;;;;;26.56;28.09;101382.13;4982455;28;20039;-76
2022/08/08 09:50:19;;;;;;;10.38;9.55;;;;;;;26.67;27.21;101385.09;4981432;28;20046;-76
2022/08/08 09:52:49;;;;;;;9.97;9.33;;;;;;;26.62;27.17;101383.63;4984042;28;20057;-76
2022/08/08 09:55:15;;;;;;;10.63;9.68;;;;;;;26.55;26.88;101382.25;4982021;28;20034;-76
2022/08/08 09:57:42;;;;;;;11.52;10.63;;;;;;;26.61;27.67;101385.44;4965412;28;20034;-76
2022/08/08 10:00:09;;;;;;;11.18;10.38;;;;;;;26.58;26.84;101391.03;4983256;28;20046;-76
2022/08/08 10:02:40;;;;;;;10.23;9.63;;;;;;;26.49;26.73;101383.47;4980157;28;20033;-76
2022/08/08 10:05:15;;;;;;;11.20;10.50;;;;;;;26.38;27.03;101385.91;4975585;28;20042;-76
2022/08/08 10:07:52;;;;;;;11.00;10.30;;;;;;;26.64;26.75;101384.38;4983213;28;20038;-76
2022/08/08 10:10:25;;;;;;;10.75;10.07;;;;;;;26.66;26.92;101377.06;4981579;28;20043;-76
2022/08/08 10:12:51;;;;;;;10.23;9.52;;;;;;;26.63;26.42;101380.81;4963988;28;20030;-76
2022/08/08 10:15:16;;;;;;;11.45;10.45;;;;;;;26.35;27.10;101375.28;4983853;28;20824;-76
2022/08/08 10:17:46;;;;;;;10.50;9.80;;;;;;;26.36;27.24;101364.38;4980487;28;20510;-76
2022/08/08 10:20:12;;;;;;;10.00;9.40;;;;;;;26.50;27.14;101371.66;4965617;28;20100;-76
2022/08/08 10:22:45;;;;;;;10.95;10.25;;;;;;;26.46;26.27;101370.09;4981774;28;20129;-76
2022/08/08 10:25:18;;;;;;;11.45;10.48;;;;;;;26.49;26.73;101369.94;4973663;28;20035;-76
2022/08/08 10:27:49;;;;;;;9.50;8.90;;;;;;;26.64;26.71;101360.88;4981839;28;20042;-76
2022/08/08 10:30:15;;;;;;;11.03;10.33;;;;;;;26.70;26.10;101361.47;4964203;28;20417;-76
2022/08/08 10:32:41;;;;;;;10.73;10.02;;;;;;;26.79;26.46;101360.94;4983095;28;20046;-76
2022/08/08 10:35:15;;;;;;;11.20;10.55;;;;;;;26.92;26.12;101369.19;4980471;28;20043;-76
2022/08/08 10:37:58;;;;;;;11.25;10.45;;;;;;;26.61;26.36;101358.38;4982092;28;20068;-76
2022/08/08 10:40:26;;;;;;;10.07;9.40;;;;;;;26.49;26.76;101356.38;4981153;28;20066;-76
2022/08/08 10:42:58;;;;;;;10.10;9.40;;;;;;;26.43;26.88;101354.03;4981368;28;20034;-76
2022/08/08 10:45:24;;;;;;;11.85;10.90;;;;;;;26.34;26.75;101351.88;4962393;28;20048;-76
2022/08/08 10:47:57;;;;;;;11.85;10.80;;;;;;;26.44;26.82;101355.78;4983683;28;20519;-76
2022/08/08 10:50:34;;;;;;;10.85;10.05;;;;;;;26.57;26.35;101346.00;4961627;28;20465;-76
2022/08/08 10:53:04;;;;;;;10.77;9.98;;;;;;;27.01;25.95;101349.63;4979829;28;20126;-76
2022/08/08 10:55:31;;;;;;;10.65;9.95;;;;;;;27.34;25.98;101343.97;4965081;28;20034;-76
2022/08/08 10:58:09;;;;;;;10.90;10.23;;;;;;;27.01;25.77;101347.81;4984802;28;20034;-76
2022/08/08 11:00:41;;;;;;;11.43;10.70;;;;;;;27.01;26.10;101339.69;4982111;28;20041;-76
2022/08/08 11:03:15;;;;;;;10.68;9.73;;;;;;;26.98;25.40;101334.44;4973725;28;20403;-76
2022/08/08 11:05:46;;;;;;;11.10;10.15;;;;;;;26.93;25.80;101338.41;4983940;28;20046;-76
2022/08/08 11:08:21;;;;;;;11.48;10.57;;;;;;;26.99;24.95;101335.34;4965480;28;20141;-76
2022/08/08 11:10:47;;;;;;;10.05;9.35;;;;;;;26.82;25.79;101339.94;4984084;28;20039;-76
2022/08/08 11:13:20;;;;;;;11.05;10.00;;;;;;;26.84;25.70;101337.16;4983914;28;20085;-76
2022/08/08 11:15:46;;;;;;;11.07;10.32;;;;;;;26.81;26.32;101335.50;4985626;28;20040;-76
2022/08/08 11:18:12;;;;;;;11.32;10.35;;;;;;;26.82;25.98;101339.09;4984832;28;20038;-76
2022/08/08 11:20:39;;;;;;;10.88;10.02;;;;;;;26.69;26.21;101336.25;4984390;28;20073;-76
2022/08/08 11:23:06;;;;;;;10.50;9.65;;;;;;;26.65;25.87;101341.00;4975594;28;20148;-76
2022/08/08 11:25:32;;;;;;;11.82;10.85;;;;;;;26.58;26.12;101331.50;4969068;28;20091;-76
2022/08/08 11:28:00;;;;;;;11.90;10.68;;;;;;;26.79;26.15;101331.16;4985058;28;20038;-76
2022/08/08 11:30:30;;;;;;;14.38;11.05;;;;;;;27.14;25.73;101330.78;4986998;28;20113;-76
2022/08/08 11:33:02;;;;;;;12.15;11.25;;;;;;;27.51;25.23;101326.66;4986330;28;20069;-77
2022/08/08 11:35:27;;;;;;;;;;;;;;;27.80;25.42;101324.75;4985160;28;20038;-76
2022/08/08 11:37:53;;;;;;;11.48;10.77;;;;;;;28.12;24.94;101321.75;4985243;28;19940;-76
2022/08/08 11:40:19;;;;;;;13.18;12.20;;;;;;;28.47;24.68;101319.34;4985678;28;20038;-76
2022/08/08 11:42:44;;;;;;;14.90;13.80;;;;;;;29.11;23.97;101311.28;4983681;28;20110;-76
2022/08/08 11:45:12;;;;;;;13.20;12.30;;;;;;;29.80;23.21;101310.81;4986711;28;20172;-76
2022/08/08 11:47:39;;;;;;;12.43;11.52;;;;;;;29.97;22.46;101304.09;4984206;28;20030;-76
2022/08/08 11:50:18;;;;;;;14.75;13.75;;;;;;;30.25;21.41;101303.75;4958870;28;20046;-76
2022/08/08 11:52:45;;;;;;;13.27;12.32;;;;;;;30.26;20.87;101310.94;4969059;28;20508;-77